Time;durP1;ratioP1;P1;durP2;ratioP2;P2;SDS_P1;SDS_P2;PMS_P1;PMS_P2;Temp;Humidity;BMP_temperature;BMP_pressure;BME280_temperature;BME280_humidity;BME280_pressure;Samples;Min_cycle;Max_cycle;Signal;HPM_P1;HPM_P2
2021/09/07 14:32:12;;;;;;;16.10;7.47;;;;;;;;;;5034557;28;20462;-77
2021/09/07 14:34:38;;;;;;;8.20;4.78;;;25.20;92.50;;;;;;5005196;28;91129;-78
2021/09/07 14:37:05;;;;;;;9.82;5.78;;;24.80;92.10;;;;;;5011315;28;21063;-77
2021/09/07 14:39:30;;;;;;;14.40;6.00;;;25.00;91.80;;;;;;5018211;28;20022;-78
2021/09/07 14:41:56;;;;;;;10.07;4.65;;;24.70;92.30;;;;;;5011461;28;20497;-78
2021/09/07 14:44:22;;;;;;;14.15;6.47;;;24.60;93.00;;;;;;5006561;28;20030;-78
2021/09/07 14:46:48;;;;;;;8.27;4.38;;;24.00;92.50;;;;;;5002234;28;20055;-78
2021/09/07 14:49:13;;;;;;;8.25;4.65;;;23.60;95.20;;;;;;5024914;28;20068;-78
2021/09/07 14:51:39;;;;;;;9.50;4.45;;;23.80;95.20;;;;;;5015374;28;20045;-76
2021/09/07 14:54:05;;;;;;;5.03;3.58;;;24.30;99.90;;;;;;5013207;28;20037;-78
2021/09/07 14:56:31;;;;;;;5.80;3.47;;;;;;;;;;5026807;28;20040;-78
2021/09/07 14:58:57;;;;;;;9.80;5.50;;;;;;;;;;5004145;28;20141;-77
2021/09/07 15:01:23;;;;;;;7.97;3.85;;;;;;;;;;5013072;28;20048;-77
2021/09/07 15:03:49;;;;;;;8.70;4.30;;;;;;;;;;5012501;28;20081;-77
2021/09/07 15:06:15;;;;;;;7.22;3.72;;;;;;;;;;5008869;28;20038;-77
2021/09/07 15:08:41;;;;;;;6.63;3.45;;;;;;;;;;5011610;28;20038;-77
2021/09/07 15:11:07;;;;;;;5.90;4.00;;;;;;;;;;5003770;28;20030;-77
2021/09/07 15:13:34;;;;;;;5.38;2.92;;;;;;;;;;5012516;28;20088;-78
2021/09/07 15:16:00;;;;;;;9.40;4.10;;;;;;;;;;5011520;28;20112;-77
2021/09/07 15:18:26;;;;;;;7.25;3.10;;;;;;;;;;5015621;28;20159;-77
2021/09/07 15:20:51;;;;;;;8.55;4.18;;;22.90;98.80;;;;;;5007011;28;20909;-77
2021/09/07 15:23:18;;;;;;;12.20;6.47;;;;;;;;;;5008901;28;20042;-77
2021/09/07 15:25:43;;;;;;;15.15;6.63;;;23.00;95.00;;;;;;5008981;28;20076;-78
2021/09/07 15:28:10;;;;;;;14.95;5.93;;;;;;;;;;5001074;28;20124;-76
2021/09/07 15:30:36;;;;;;;6.80;3.60;;;;;;;;;;5011679;28;20033;-74
2021/09/07 15:33:02;;;;;;;8.45;3.75;;;;;;;;;;5008518;28;20052;-77
2021/09/07 15:35:28;;;;;;;7.57;4.05;;;;;;;;;;5007815;28;20061;-76
2021/09/07 15:37:54;;;;;;;12.77;6.25;;;22.70;95.70;;;;;;5011326;28;20033;-77
2021/09/07 15:40:19;;;;;;;11.68;5.55;;;22.60;95.80;;;;;;5002520;28;20030;-77
2021/09/07 15:42:45;;;;;;;5.95;3.95;;;22.60;98.40;;;;;;4996925;28;20107;-77
2021/09/07 15:45:12;;;;;;;13.00;6.30;;;22.50;98.40;;;;;;4991863;28;20033;-77
2021/09/07 15:47:39;;;;;;;7.40;4.50;;;22.50;95.70;;;;;;4987044;28;20120;-77
2021/09/07 15:50:05;;;;;;;7.68;4.15;;;22.50;96.50;;;;;;4992823;28;20164;-77
2021/09/07 15:52:32;;;;;;;6.72;3.70;;;;;;;;;;4987388;28;20022;-77
2021/09/07 15:54:58;;;;;;;15.10;7.10;;;22.40;96.40;;;;;;4988853;28;20038;-77
2021/09/07 15:57:24;;;;;;;20.13;7.85;;;23.00;99.10;;;;;;4987100;28;20120;-77
2021/09/07 15:59:49;;;;;;;15.88;6.20;;;21.90;98.70;;;;;;4988192;28;20034;-77
2021/09/07 16:02:18;;;;;;;7.97;4.40;;;22.30;97.60;;;;;;4986163;28;20058;-77
2021/09/07 16:04:44;;;;;;;9.82;5.07;;;22.50;97.60;;;;;;4990178;28;20476;-76
2021/09/07 16:07:10;;;;;;;8.43;4.53;;;22.30;98.50;;;;;;4991651;28;20058;-77
2021/09/07 16:09:36;;;;;;;7.28;5.07;;;22.20;98.80;;;;;;5000233;28;20121;-78
2021/09/07 16:12:02;;;;;;;7.55;4.20;;;22.00;99.50;;;;;;4998280;28;20580;-77
2021/09/07 16:14:27;;;;;;;6.43;3.47;;;22.00;99.20;;;;;;4994653;28;20116;-76
2021/09/07 16:16:53;;;;;;;7.05;4.10;;;;;;;;;;5000058;28;20034;-77
2021/09/07 16:19:19;;;;;;;7.28;4.47;;;;;;;;;;4997270;28;20041;-77
2021/09/07 16:21:46;;;;;;;10.90;4.60;;;;;;;;;;4994968;28;20045;-77
2021/09/07 16:24:15;;;;;;;8.95;4.25;;;;;;;;;;4994621;28;20108;-77
2021/09/07 16:26:41;;;;;;;7.70;4.90;;;;;;;;;;4998515;28;20084;-77
2021/09/07 16:29:08;;;;;;;8.63;5.25;;;21.50;98.90;;;;;;4989710;28;20030;-76
2021/09/07 16:31:34;;;;;;;8.10;4.65;;;21.30;99.30;;;;;;4995770;28;20045;-77
2021/09/07 16:34:00;;;;;;;8.43;4.70;;;;;;;;;;4996816;28;20022;-77
2021/09/07 16:36:28;;;;;;;12.60;5.25;;;;;;;;;;4997079;28;20034;-77
2021/09/07 16:38:54;;;;;;;7.68;4.25;;;;;;;;;;4996734;28;20137;-78
2021/09/07 16:41:20;;;;;;;7.13;4.13;;;21.00;99.90;;;;;;4994488;28;20045;-77
2021/09/07 16:43:45;;;;;;;6.85;4.50;;;20.80;99.90;;;;;;4992992;28;20046;-74
2021/09/07 16:46:12;;;;;;;8.68;4.18;;;;;;;;;;4993275;28;20054;-77
2021/09/07 16:48:40;;;;;;;7.03;4.18;;;;;;;;;;4998032;28;20037;-78
2021/09/07 16:51:07;;;;;;;7.68;4.80;;;;;;;;;;4994692;28;20049;-77
2021/09/07 16:53:43;;;;;;;8.25;4.78;;;;;;;;;;4992886;28;20401;-77
2021/09/07 16:56:09;;;;;;;9.00;4.65;;;;;;;;;;4996428;28;20046;-77
2021/09/07 16:58:35;;;;;;;8.43;4.88;;;;;;;;;;4997123;28;20037;-77
2021/09/07 17:01:01;;;;;;;10.30;4.97;;;20.30;99.90;;;;;;4997426;28;20117;-78
2021/09/07 17:03:27;;;;;;;9.77;5.00;;;;;;;;;;4998274;28;20042;-77
2021/09/07 17:05:53;;;;;;;11.82;5.18;;;;;;;;;;4994309;28;20033;-77
2021/09/07 17:08:25;;;;;;;8.25;4.90;;;;;;;;;;4996297;28;20176;-78
2021/09/07 17:10:51;;;;;;;7.90;4.72;;;;;;;;;;4995360;28;20500;-78
2021/09/07 17:13:19;;;;;;;9.88;5.45;;;;;;;;;;4993556;28;20033;-77
2021/09/07 17:15:45;;;;;;;9.93;4.93;;;;;;;;;;4996940;28;20121;-67
2021/09/07 17:18:11;;;;;;;8.73;4.93;;;;;;;;;;4998379;28;20030;-66
2021/09/07 17:20:39;;;;;;;9.57;5.22;;;;;;;;;;4995744;28;20780;-66
2021/09/07 17:23:06;;;;;;;10.23;5.90;;;19.90;99.90;;;;;;4991003;28;20052;-66
2021/09/07 17:25:32;;;;;;;10.88;6.18;;;;;;;;;;4989758;28;20057;-67
2021/09/07 17:27:59;;;;;;;10.73;5.47;;;19.10;99.90;;;;;;4989421;28;20049;-65
2021/09/07 17:30:29;;;;;;;9.40;5.95;;;;;;;;;;4997871;28;20042;-66
2021/09/07 17:33:23;;;;;;;10.50;5.22;;;;;;;;;;4996442;28;20032;-66
2021/09/07 17:35:49;;;;;;;7.35;4.68;;;;;;;;;;4996893;28;20407;-65
2021/09/07 17:43:45;;;;;;;8.70;5.70;;;;;;;;;;4987646;28;20041;-65
2021/09/07 17:46:11;;;;;;;8.60;5.35;;;;;;;;;;4988941;28;20042;-65
2021/09/07 17:48:36;;;;;;;9.15;5.57;;;18.20;99.90;;;;;;4993396;28;20033;-66
2021/09/07 17:51:03;;;;;;;9.60;5.70;;;18.20;99.90;;;;;;4988218;28;20038;-65
2021/09/07 17:53:28;;;;;;;7.88;5.47;;;18.00;99.90;;;;;;4987108;28;20035;-65
2021/09/07 17:55:54;;;;;;;11.85;5.82;;;17.90;99.90;;;;;;4988203;28;20088;-65
2021/09/07 17:58:20;;;;;;;9.30;5.20;;;17.80;99.90;;;;;;4987981;28;20072;-65
2021/09/07 18:00:46;;;;;;;11.50;5.60;;;17.70;99.90;;;;;;4996127;28;20150;-65
2021/09/07 18:03:12;;;;;;;12.52;5.20;;;17.60;99.90;;;;;;4994517;28;20052;-68
2021/09/07 18:05:39;;;;;;;11.60;5.45;;;14.70;99.90;;;;;;4985776;28;20026;-66
2021/09/07 18:08:05;;;;;;;9.10;5.85;;;17.60;99.90;;;;;;4989971;28;20033;-66
2021/09/07 18:10:31;;;;;;;7.80;5.75;;;17.10;99.90;;;;;;4994234;28;20034;-66
2021/09/07 18:12:57;;;;;;;9.52;5.60;;;17.30;99.90;;;;;;4988903;28;20029;-66
2021/09/07 18:15:23;;;;;;;7.93;4.95;;;17.10;99.90;;;;;;4987100;28;20378;-66
2021/09/07 18:17:49;;;;;;;10.98;5.72;;;;;;;;;;4987355;28;20026;-66
2021/09/07 18:20:15;;;;;;;8.45;5.10;;;;;;;;;;5004222;28;20141;-66
2021/09/07 18:22:41;;;;;;;10.68;6.32;;;;;;;;;;4989938;28;20041;-66
2021/09/07 18:25:08;;;;;;;9.27;5.88;;;;;;;;;;5010013;28;20519;-66
2021/09/07 18:27:34;;;;;;;10.57;6.65;;;16.80;99.90;;;;;;4995006;28;20029;-66
2021/09/07 18:30:00;;;;;;;17.52;6.45;;;16.60;99.90;;;;;;4991112;28;20034;-66
2021/09/07 18:32:26;;;;;;;12.77;6.20;;;16.00;99.90;;;;;;4998301;28;20066;-67
2021/09/07 18:34:52;;;;;;;13.63;6.60;;;15.80;99.90;;;;;;4994497;28;20034;-66
2021/09/07 18:37:19;;;;;;;11.77;6.93;;;16.70;99.90;;;;;;4993717;28;20684;-66
2021/09/07 18:39:45;;;;;;;10.48;5.78;;;;;;;;;;4986335;28;20029;-66
2021/09/07 18:42:11;;;;;;;13.18;6.20;;;;;;;;;;4988090;28;20037;-66
2021/09/07 18:44:37;;;;;;;10.77;6.18;;;;;;;;;;4989318;28;20034;-66
2021/09/07 18:47:03;;;;;;;10.65;6.05;;;16.10;99.90;;;;;;4997027;28;20140;-66
2021/09/07 18:49:30;;;;;;;10.65;6.75;;;;;;;;;;4998127;28;20034;-66
2021/09/07 18:51:56;;;;;;;10.90;5.80;;;;;;;;;;4997269;28;20121;-66
2021/09/07 18:54:22;;;;;;;11.02;6.75;;;;;;;;;;4995135;28;20026;-66
2021/09/07 18:56:48;;;;;;;11.07;6.60;;;15.70;99.90;;;;;;4994244;28;20108;-66
2021/09/07 18:59:13;;;;;;;12.48;7.25;;;15.20;99.90;;;;;;4996354;28;20660;-66
2021/09/07 19:01:40;;;;;;;11.32;6.65;;;;;;;;;;4996222;28;20042;-66
2021/09/07 19:04:06;;;;;;;9.95;6.57;;;16.30;99.90;;;;;;4994948;28;20390;-66
2021/09/07 19:06:33;;;;;;;10.98;6.70;;;16.00;99.90;;;;;;4997216;28;20040;-66
2021/09/07 19:08:59;;;;;;;12.10;6.47;;;15.00;99.90;;;;;;4992238;28;20433;-66
2021/09/07 19:11:25;;;;;;;14.55;6.85;;;;;;;;;;4991968;28;20042;-66
2021/09/07 19:13:51;;;;;;;11.40;6.95;;;15.80;99.90;;;;;;4989968;28;20026;-66
2021/09/07 19:16:18;;;;;;;11.50;7.30;;;15.40;99.90;;;;;;4995630;28;20029;-66
2021/09/07 19:18:45;;;;;;;13.00;7.35;;;;;;;;;;4999703;28;20112;-66
2021/09/07 19:21:12;;;;;;;11.55;6.60;;;14.90;99.90;;;;;;5001100;28;20782;-66
2021/09/07 19:23:38;;;;;;;14.68;7.80;;;15.40;99.90;;;;;;4999729;28;20065;-66
2021/09/07 19:26:05;;;;;;;12.65;7.10;;;15.30;99.90;;;;;;5008623;28;20117;-66
2021/09/07 19:28:31;;;;;;;13.55;7.82;;;15.20;99.90;;;;;;4991706;28;20125;-66
2021/09/07 19:30:58;;;;;;;18.15;8.75;;;;;;;;;;4995567;28;20034;-66
2021/09/07 19:33:24;;;;;;;16.05;9.13;;;;;;;;;;4997863;28;20764;-66
2021/09/07 19:35:50;;;;;;;14.88;7.53;;;;;;;;;;5000580;28;20030;-66
2021/09/07 19:38:16;;;;;;;13.85;8.07;;;;;;;;;;5000005;28;20045;-66
2021/09/07 19:40:42;;;;;;;12.63;7.35;;;;;;;;;;5000212;28;20151;-66
2021/09/07 19:43:10;;;;;;;10.68;6.78;;;;;;;;;;5000458;28;20040;-66
2021/09/07 19:45:36;;;;;;;14.00;8.65;;;;;;;;;;5000565;28;20038;-66
2021/09/07 19:48:02;;;;;;;13.30;7.90;;;;;;;;;;4995167;28;20108;-65
2021/09/07 19:50:28;;;;;;;24.83;8.43;;;14.60;99.90;;;;;;4995135;28;20990;-66
2021/09/07 19:52:55;;;;;;;12.68;7.82;;;;;;;;;;4995806;28;20030;-66
2021/09/07 19:55:21;;;;;;;20.60;8.15;;;;;;;;;;4996876;28;20038;-66
2021/09/07 19:57:47;;;;;;;14.93;8.43;;;;;;;;;;5000634;28;20396;-66
2021/09/07 20:00:16;;;;;;;23.75;7.75;;;14.70;99.90;;;;;;5001686;28;20030;-66
2021/09/07 20:02:44;;;;;;;16.88;8.52;;;14.70;99.90;;;;;;5000060;28;20084;-66
2021/09/07 20:05:10;;;;;;;12.52;7.47;;;14.70;99.90;;;;;;4999183;28;20037;-66
2021/09/07 20:07:36;;;;;;;14.07;7.95;;;;;;;;;;4992762;28;20773;-66
2021/09/07 20:10:04;;;;;;;13.38;8.00;;;14.50;99.90;;;;;;4995213;28;21195;-66
2021/09/07 20:12:30;;;;;;;12.93;7.65;;;;;;;;;;4997591;28;20616;-66
2021/09/07 20:14:56;;;;;;;12.50;7.60;;;;;;;;;;5000554;28;20034;-66
2021/09/07 20:17:22;;;;;;;16.83;7.90;;;;;;;;;;4982058;28;20040;-66
2021/09/07 20:19:48;;;;;;;14.88;8.20;;;;;;;;;;5001146;28;20077;-67
2021/09/07 20:22:14;;;;;;;14.57;7.95;;;;;;;;;;4998143;28;20577;-67
2021/09/07 20:24:41;;;;;;;12.90;7.43;;;;;;;;;;4999775;28;20036;-66
2021/09/07 20:27:06;;;;;;;14.23;7.82;;;14.70;99.90;;;;;;4993556;28;20157;-66
2021/09/07 20:29:32;;;;;;;14.27;7.95;;;;;;;;;;4997296;28;20069;-66
2021/09/07 20:31:58;;;;;;;16.65;9.48;;;14.50;99.90;;;;;;4995891;28;20804;-66
2021/09/07 20:34:24;;;;;;;14.43;8.85;;;;;;;;;;4997505;28;20029;-66
2021/09/07 20:36:50;;;;;;;14.93;8.77;;;13.90;99.90;;;;;;4998426;28;20034;-66
2021/09/07 20:39:16;;;;;;;17.10;8.70;;;;;;;;;;4999009;28;20030;-66
2021/09/07 20:41:44;;;;;;;14.38;8.40;;;;;;;;;;4982036;28;20744;-66
2021/09/07 20:44:10;;;;;;;15.60;8.52;;;;;;;;;;5000710;28;20096;-65
2021/09/07 20:46:36;;;;;;;19.25;8.82;;;;;;;;;;4999629;28;20456;-66
2021/09/07 20:49:02;;;;;;;14.77;8.57;;;;;;;;;;4989725;28;20046;-66
2021/09/07 20:51:28;;;;;;;20.25;8.85;;;13.90;99.90;;;;;;4999213;28;20068;-66
2021/09/07 20:53:54;;;;;;;13.95;9.23;;;;;;;;;;4999765;28;20545;-66
2021/09/07 20:56:20;;;;;;;17.90;8.63;;;;;;;;;;4998085;28;20537;-66
2021/09/07 20:58:46;;;;;;;15.00;8.80;;;;;;;;;;4999754;28;20036;-66
2021/09/07 21:01:12;;;;;;;18.02;8.40;;;;;;;;;;5000608;28;20045;-66
2021/09/07 21:03:38;;;;;;;17.45;8.88;;;;;;;;;;4998786;28;20136;-66
2021/09/07 21:06:04;;;;;;;14.32;8.93;;;;;;;;;;4994242;28;20041;-66
2021/09/07 21:08:30;;;;;;;19.25;8.63;;;;;;;;;;4998538;28;20652;-66
2021/09/07 21:10:57;;;;;;;16.45;9.15;;;;;;;;;;4999755;28;20482;-66
2021/09/07 21:13:23;;;;;;;15.35;9.13;;;;;;;;;;4999081;28;20534;-66
2021/09/07 21:15:50;;;;;;;20.10;9.18;;;;;;;;;;5000140;28;20116;-66
2021/09/07 21:18:16;;;;;;;15.75;9.30;;;14.20;99.90;;;;;;4998742;28;20092;-66
2021/09/07 21:20:42;;;;;;;23.35;8.70;;;;;;;;;;5000283;28;20409;-66
2021/09/07 21:23:08;;;;;;;18.25;9.25;;;;;;;;;;4997270;28;20113;-66
2021/09/07 21:25:35;;;;;;;17.48;9.38;;;;;;;;;;4997477;28;20047;-66
2021/09/07 21:28:01;;;;;;;18.13;9.60;;;;;;;;;;4991685;28;20157;-66
2021/09/07 21:30:27;;;;;;;18.38;9.18;;;;;;;;;;4994927;28;20054;-66
2021/09/07 21:32:53;;;;;;;16.08;8.63;;;;;;;;;;4999484;28;20070;-66
2021/09/07 21:35:19;;;;;;;16.52;8.48;;;;;;;;;;4999332;28;20431;-66
2021/09/07 21:37:45;;;;;;;15.27;8.38;;;;;;;;;;4999368;28;20038;-66
2021/09/07 21:40:11;;;;;;;17.98;8.27;;;;;;;;;;4998545;28;20401;-66
2021/09/07 21:42:38;;;;;;;16.80;8.85;;;;;;;;;;4996516;28;20034;-66
2021/09/07 21:45:05;;;;;;;21.33;11.00;;;13.30;99.90;;;;;;4995319;28;20034;-66
2021/09/07 21:47:32;;;;;;;16.63;10.32;;;13.30;99.90;;;;;;4996659;28;20036;-66
2021/09/07 21:49:58;;;;;;;25.38;12.13;;;;;;;;;;4996410;28;20083;-66
2021/09/07 21:52:24;;;;;;;24.15;11.45;;;;;;;;;;4996241;28;20054;-66
2021/09/07 21:54:51;;;;;;;18.83;10.20;;;;;;;;;;4998084;28;20034;-66
2021/09/07 21:57:17;;;;;;;19.90;10.43;;;;;;;;;;4998018;28;20333;-65
2021/09/07 21:59:43;;;;;;;19.27;10.55;;;;;;;;;;4998096;28;20409;-65
2021/09/07 22:02:09;;;;;;;17.45;9.15;;;;;;;;;;4996121;28;20030;-65
2021/09/07 22:04:35;;;;;;;15.02;9.52;;;;;;;;;;4994094;28;20052;-66
2021/09/07 22:07:01;;;;;;;17.17;9.65;;;;;;;;;;4992702;28;20196;-66
2021/09/07 22:09:27;;;;;;;15.32;9.35;;;;;;;;;;4994364;28;21051;-66
2021/09/07 22:11:54;;;;;;;14.52;8.77;;;;;;;;;;4994332;28;20038;-66
2021/09/07 22:14:20;;;;;;;12.55;7.88;;;;;;;;;;4994208;28;20119;-66
2021/09/07 22:16:46;;;;;;;13.50;8.02;;;;;;;;;;4994482;28;20113;-66
2021/09/07 22:19:13;;;;;;;15.43;8.57;;;13.00;99.90;;;;;;4996374;28;20076;-66
2021/09/07 22:21:39;;;;;;;13.85;8.40;;;;;;;;;;4994573;28;20048;-66
2021/09/07 22:24:05;;;;;;;13.23;8.35;;;;;;;;;;4994915;28;20042;-66
2021/09/07 22:26:32;;;;;;;13.57;7.90;;;;;;;;;;4997018;28;20038;-66
2021/09/07 22:28:58;;;;;;;17.65;8.27;;;;;;;;;;4996420;28;20029;-66
2021/09/07 22:31:24;;;;;;;12.90;8.02;;;;;;;;;;4997562;28;20081;-66
2021/09/07 22:33:51;;;;;;;20.13;9.40;;;;;;;;;;4998345;28;20030;-66
2021/09/07 22:36:18;;;;;;;13.57;8.23;;;;;;;;;;4998437;28;20111;-66
2021/09/07 22:38:46;;;;;;;17.55;8.63;;;;;;;;;;4997750;28;20140;-66
2021/09/07 22:41:12;;;;;;;13.15;8.23;;;;;;;;;;4989699;28;20044;-66
2021/09/07 22:43:38;;;;;;;15.40;8.98;;;;;;;;;;4996992;28;20125;-66
2021/09/07 22:46:06;;;;;;;14.32;8.70;;;;;;;;;;4990089;28;20042;-66
2021/09/07 22:48:35;;;;;;;15.52;8.65;;;;;;;;;;4994552;28;20483;-66
2021/09/07 22:51:01;;;;;;;14.77;8.80;;;;;;;;;;4999177;28;20038;-67
2021/09/07 22:53:28;;;;;;;16.70;9.25;;;;;;;;;;5004364;28;20030;-66
2021/09/07 22:55:54;;;;;;;14.73;9.30;;;;;;;;;;5003329;28;20026;-66
2021/09/07 22:58:23;;;;;;;18.45;9.85;;;;;;;;;;5000731;28;20026;-66
2021/09/07 23:00:49;;;;;;;16.08;9.00;;;;;;;;;;4999500;28;20034;-66
2021/09/07 23:03:16;;;;;;;16.50;7.93;;;;;;;;;;4999522;28;20038;-66
2021/09/07 23:05:42;;;;;;;12.57;7.30;;;;;;;;;;4999768;28;20498;-66
2021/09/07 23:08:08;;;;;;;16.90;7.05;;;;;;;;;;5000035;28;20211;-66
2021/09/07 23:10:34;;;;;;;10.55;6.55;;;;;;;;;;5001136;28;20045;-66
2021/09/07 23:13:00;;;;;;;13.88;7.18;;;;;;;;;;5001457;28;20030;-66
2021/09/07 23:15:26;;;;;;;13.30;8.35;;;;;;;;;;5001036;28;20125;-66
2021/09/07 23:17:52;;;;;;;18.60;8.45;;;;;;;;;;5001310;28;20208;-66
2021/09/07 23:20:18;;;;;;;13.88;7.78;;;;;;;;;;4992970;28;20029;-66
2021/09/07 23:22:44;;;;;;;32.22;11.20;;;;;;;;;;5000690;28;20116;-66
2021/09/07 23:25:10;;;;;;;68.30;14.20;;;;;;;;;;4997800;28;20557;-66
2021/09/07 23:27:36;;;;;;;90.00;15.18;;;;;;;;;;5000179;28;20730;-66
2021/09/07 23:30:03;;;;;;;131.65;17.63;;;;;;;;;;5000407;28;20042;-66
2021/09/07 23:32:29;;;;;;;92.68;15.07;;;;;;;;;;5002206;28;20041;-66
2021/09/07 23:34:55;;;;;;;94.07;14.52;;;;;;;;;;5001914;28;20462;-66
2021/09/07 23:37:21;;;;;;;128.23;18.05;;;;;;;;;;5000827;28;20057;-66
2021/09/07 23:39:47;;;;;;;119.97;17.17;;;;;;;;;;5001289;28;20127;-66
2021/09/07 23:42:13;;;;;;;124.50;16.92;;;;;;;;;;4998678;28;20104;-66
2021/09/07 23:44:39;;;;;;;110.65;16.30;;;;;;;;;;4998616;28;20038;-66
2021/09/07 23:47:05;;;;;;;105.88;15.95;;;;;;;;;;5002190;28;20042;-66
2021/09/07 23:49:31;;;;;;;95.53;15.48;;;;;;;;;;5002168;28;20670;-66
2021/09/07 23:51:57;;;;;;;75.53;13.80;;;;;;;;;;5001667;28;20050;-66
2021/09/07 23:54:23;;;;;;;147.05;19.50;;;;;;;;;;5001630;28;20036;-66
2021/09/07 23:56:49;;;;;;;105.38;16.55;;;;;;;;;;5001248;28;20022;-66
2021/09/07 23:59:15;;;;;;;118.63;19.48;;;;;;;;;;4997722;28;20057;-66
